HOURLY OBS INDEX

017

Northeast Pastoral

LEIGH CREEK AIRPORT

Site: 017110
Alt: 258.8m
111km SSE of MARREE


  Time     Wind        Temp  DP   Baro     Rain since   Rain past  Vis(m), Cloud(base in m), Weather
  local        km/h                         9am  last   hr   10m    
Mon 19:30  SSW 30/ 39  30.0 10.0  1013.0    0.0   0.0   0.0   0.0   ----- 
Mon 19:30  SSW 30/ 39  30.0 10.0  1013.0    0.0   0.0  ----   0.0   ----- 
Mon 20:00    S 22/ 28  29.9  9.9  1013.0    0.0   0.0   0.0   0.0   ----- 
Mon 20:00    S 22/ 28  29.9  9.9  1013.0    0.0   0.0  ----   0.0   ----- 
Mon 20:30    S 20/ 28  29.7  9.8  1013.5    0.0   0.0   0.0   0.0   ----- 
Mon 20:30    S 20/ 28  29.7  9.8  1013.5    0.0   0.0  ----   0.0   ----- 
Mon 21:00    S 24/ 33  29.5  9.1  1013.7    0.0   0.0   0.0   0.0   ----- 
Mon 21:30    S 20/ 32  28.9  8.6  1013.8    0.0   0.0   0.0   0.0   ----- 
Mon 22:00    S 22/ 37  28.6  9.8  1013.9    0.0   0.0   0.0   0.0   ----- 
Mon 22:30    S 19/ 26  27.9 10.6  1014.0    0.0   0.0   0.0   0.0   ----- 
Mon 23:00    S 13/ 20  27.6 11.2  1013.8    0.0   0.0   0.0   0.0   ----- 
Mon 23:30    S 13/ 19  27.7 10.4  1013.5    0.0   0.0   0.0   0.0   ----- 
Tue 00:00    S  7/ 11  27.6 10.8  1013.5    0.0   0.0   0.0   0.0   ----- 
Tue 00:30  ESE 19/ 26  27.7 12.9  1013.0    0.0   0.0   0.0   0.0   ----- 
Tue 01:00  ESE 22/ 32  27.6 12.8  1012.7    0.0   0.0   0.0   0.0   ----- 

MARREE AERO

Site: 017126
Alt: 50.0m
1km SSE of MARREE


  Time     Wind        Temp  DP   Baro     Rain since   Rain past  Vis(m), Cloud(base in m), Weather
  local        km/h                         9am  last   hr   10m    
Mon 19:30    S 35/ 45  33.9  9.9  1010.8    0.0   0.0   0.0   0.0   ----- 
Mon 19:30    S 35/ 45  33.9  9.9  1010.8    0.0   0.0  ----   0.0   ----- 
Mon 20:00    S 32/ 39  33.2 10.5  1011.3    0.0   0.0   0.0   0.0   ----- 
Mon 20:00    S 32/ 39  33.2 10.5  1011.3    0.0   0.0  ----   0.0   ----- 
Mon 20:30    S 32/ 39  32.8 10.2  1011.6    0.0   0.0   0.0   0.0   ----- 
Mon 20:30    S 32/ 39  32.8 10.2  1011.6    0.0   0.0  ----   0.0   ----- 
Mon 21:00    S 35/ 46  32.3 10.4  1011.6    0.0   0.0   0.0   0.0   ----- 
Mon 21:30    S 33/ 39  32.1 10.8  1011.8    0.0   0.0   0.0   0.0   ----- 
Mon 22:00  SSE 30/ 43  31.8 10.5  1011.3    0.0   0.0   0.0   0.0   ----- 
Mon 22:30  SSE 30/ 37  31.7  9.8  1012.2    0.0   0.0   0.0   0.0   ----- 
Mon 23:00    S 32/ 39  31.5  7.9  1012.4    0.0   0.0   0.0   0.0   ----- 
Mon 23:30    S 33/ 41  31.1  7.5  1012.0    0.0   0.0   0.0   0.0   ----- 
Tue 00:00  SSE 30/ 37  30.8  8.5  1011.7    0.0   0.0   0.0   0.0   ----- 
Tue 00:30  SSE 28/ 35  30.5  8.3  1011.3    0.0   0.0   0.0   0.0   ----- 
Tue 01:00  SSE 24/ 30  30.2  8.6  1010.8    0.0   0.0   0.0   0.0   ----- 

MOOMBA AIRPORT

Site: 017123
Alt: 37.8m
66km SW of INNAMINCKA


  Time     Wind        Temp  DP   Baro     Rain since   Rain past  Vis(m), Cloud(base in m), Weather
  local        km/h                         9am  last   hr   10m    
Mon 19:30    S 20/ 26  39.4  4.7  1007.4    0.0   0.0   0.0   0.0   10000 
Mon 19:30    S 20/ 26  39.4  4.7  1007.4    0.0   0.0  ----   0.0   10000 
Mon 20:00    S 28/ 41  37.8  7.7  1007.6    0.0   0.0   0.0   0.0    8000 
Mon 20:00    S 28/ 41  37.8  7.7  1007.6    0.0   0.0  ----   0.0    8000 
Mon 20:03    S 28/ 41  37.7  7.6  1007.7    0.0   0.0  ----   0.0    7000 
Mon 20:03    S 28/ 41  37.7  7.6  1007.7    0.0   0.0  ----   0.0    7000 
Mon 20:14    S 30/ 39  37.4  7.3  1007.9    0.0   0.0  ----   0.0    9000 
Mon 20:30    S 26/ 41  37.1  7.1  1008.1    0.0   0.0   0.0   0.0   10000 
Mon 20:30    S 26/ 41  37.1  7.1  1008.1    0.0   0.0  ----   0.0   10000 
Mon 21:00    S 26/ 33  36.5  6.6  1008.3    0.0   0.0   0.0   0.0   10000 
Mon 21:30    S 28/ 35  36.0  7.1  1008.5    0.0   0.0   0.0   0.0   10000 
Mon 22:00    S 26/ 35  35.6  6.8  1008.7    0.0   0.0   0.0   0.0   10000 
Mon 22:30    S 24/ 32  35.3  7.4  1008.9    0.0   0.0   0.0   0.0   10000 
Mon 23:00  SSE 28/ 35  35.1  8.0  1009.2    0.0   0.0   0.0   0.0   10000 
Mon 23:30    S 26/ 37  34.3 10.8  1009.3    0.0   0.0   0.0   0.0   10000 
Tue 00:00    S 26/ 35  33.7 10.9  1009.2    0.0   0.0   0.0   0.0   10000 
Tue 00:30    S 26/ 35  33.2 10.5  1009.3    0.0   0.0   0.0   0.0   10000 
Tue 01:00    S 24/ 35  32.6 10.0  1009.2    0.0   0.0   0.0   0.0   10000 

OODNADATTA AIRPORT

Site: 017043
Alt: 116.5m
1km S of OODNADATTA


  Time     Wind        Temp  DP   Baro     Rain since   Rain past  Vis(m), Cloud(base in m), Weather
  local        km/h                         9am  last   hr   10m    
Mon 19:30    S 37/ 48  34.4  9.6  1010.3    0.0   0.0   0.0   0.0   ----- 
Mon 19:30    S 37/ 48  34.4  9.6  1010.3    0.0   0.0  ----   0.0   ----- 
Mon 20:00    S 39/ 48  33.6  9.6  1010.5    0.0   0.0   0.0   0.0   ----- 
Mon 20:00    S 39/ 48  33.6  9.6  1010.5    0.0   0.0  ----   0.0   ----- 
Mon 20:30    S 35/ 46  32.9  9.7  1010.9    0.0   0.0   0.0   0.0   ----- 
Mon 20:30    S 35/ 46  32.9  9.7  1010.9    0.0   0.0  ----   0.0   ----- 
Mon 21:00    S 43/ 54  32.2  9.7  1010.9    0.0   0.0   0.0   0.0   ----- 
Mon 21:30    S 39/ 52  31.8  9.3  1011.1    0.0   0.0   0.0   0.0   ----- 
Mon 22:00    S 35/ 48  31.3  8.9  1011.4    0.0   0.0   0.0   0.0   ----- 
Mon 22:30    S 35/ 43  30.9  8.6  1011.5    0.0   0.0   0.0   0.0   ----- 
Mon 23:00    S 32/ 41  30.5  8.3  1011.6    0.0   0.0   0.0   0.0   ----- 
Mon 23:30    S 30/ 35  30.2  6.8  1011.5    0.0   0.0   0.0   0.0   ----- 
Tue 00:00    S 28/ 35  29.9  5.9  1011.2    0.0   0.0   0.0   0.0   ----- 
Tue 00:30    S 28/ 35  29.5  6.8  1011.2    0.0   0.0   0.0   0.0   ----- 
Tue 01:00  SSE 24/ 30  29.3  6.7  1010.8    0.0   0.0   0.0   0.0   -----